createdAt,value
2016-11-11T00:00:35.439Z,0
2016-11-11T00:01:35.775Z,0
2016-11-11T00:02:35.353Z,0
2016-11-11T00:03:35.352Z,0
2016-11-11T00:04:35.377Z,0
2016-11-11T00:05:35.688Z,0
2016-11-11T00:06:36.040Z,0
2016-11-11T00:07:36.075Z,0
2016-11-11T00:08:35.580Z,0
2016-11-11T00:09:36.472Z,0
2016-11-11T00:10:35.887Z,0
2016-11-11T00:11:35.729Z,0
2016-11-11T00:12:35.792Z,0
2016-11-11T00:13:35.900Z,0
2016-11-11T00:14:36.442Z,0
2016-11-11T00:15:36.217Z,0
2016-11-11T00:16:36.090Z,0
2016-11-11T00:17:36.058Z,0
2016-11-11T00:18:36.665Z,0
2016-11-11T00:19:36.671Z,0
2016-11-11T00:20:36.397Z,0
2016-11-11T00:21:36.823Z,0
2016-11-11T00:22:36.309Z,0
2016-11-11T00:23:36.332Z,0
2016-11-11T00:24:36.448Z,0
2016-11-11T00:25:36.487Z,0
2016-11-11T00:26:36.646Z,0
2016-11-11T00:27:36.644Z,0
2016-11-11T00:28:36.662Z,0
2016-11-11T00:29:36.694Z,0
2016-11-11T00:30:36.732Z,0
2016-11-11T00:31:36.979Z,0
2016-11-11T00:32:36.855Z,0
2016-11-11T00:33:36.921Z,0
2016-11-11T00:34:36.954Z,0
2016-11-11T00:35:37.000Z,0
2016-11-11T00:36:37.256Z,0
2016-11-11T00:37:37.098Z,0
2016-11-11T00:38:37.135Z,0
2016-11-11T00:39:38.235Z,0
2016-11-11T00:40:37.249Z,0
2016-11-11T00:41:37.543Z,0
2016-11-11T00:42:37.844Z,0
2016-11-11T00:43:37.437Z,0
2016-11-11T00:44:38.029Z,0
2016-11-11T00:45:37.543Z,0
2016-11-11T00:46:37.776Z,0
2016-11-11T00:47:37.626Z,0
2016-11-11T00:48:37.699Z,0
2016-11-11T00:49:38.204Z,0
2016-11-11T00:50:37.761Z,0
2016-11-11T00:51:37.967Z,0
2016-11-11T00:52:37.840Z,0
2016-11-11T00:53:37.954Z,0
2016-11-11T00:54:38.015Z,0
2016-11-11T00:55:38.623Z,0
2016-11-11T00:56:38.990Z,0
2016-11-11T00:57:38.144Z,0
2016-11-11T00:58:38.161Z,0
2016-11-11T00:59:38.240Z,0
2016-11-11T01:00:38.240Z,0
2016-11-11T01:01:38.321Z,0
2016-11-11T01:02:38.616Z,0
2016-11-11T01:03:39.465Z,0
2016-11-11T01:04:38.442Z,0
2016-11-11T01:05:38.552Z,0
2016-11-11T01:06:38.601Z,0
2016-11-11T01:07:38.743Z,0
2016-11-11T01:08:38.720Z,0
2016-11-11T01:09:38.759Z,0
2016-11-11T01:10:38.790Z,0
2016-11-11T01:11:38.895Z,0
2016-11-11T01:12:39.007Z,0
2016-11-11T01:13:39.993Z,0
2016-11-11T01:14:39.555Z,0
2016-11-11T01:15:39.054Z,0
2016-11-11T01:16:39.596Z,0
2016-11-11T01:17:39.365Z,0
2016-11-11T01:18:39.200Z,0
2016-11-11T01:19:39.813Z,0
2016-11-11T01:20:39.344Z,0
2016-11-11T01:21:39.345Z,0
2016-11-11T01:22:39.600Z,0
2016-11-11T01:23:39.440Z,0
2016-11-11T01:24:39.528Z,0
2016-11-11T01:25:39.541Z,0
2016-11-11T01:26:39.615Z,0
2016-11-11T01:27:39.908Z,0
2016-11-11T01:28:39.734Z,0
2016-11-11T01:29:40.313Z,0
2016-11-11T01:30:39.844Z,0
2016-11-11T01:31:39.875Z,0
2016-11-11T01:32:39.921Z,0
2016-11-11T01:33:40.717Z,0
2016-11-11T01:34:40.025Z,0
2016-11-11T01:35:40.101Z,0
2016-11-11T01:36:40.118Z,0
2016-11-11T01:37:40.166Z,0
2016-11-11T01:38:40.401Z,0
2016-11-11T01:39:40.810Z,0
2016-11-11T01:40:40.344Z,0
2016-11-11T01:41:40.420Z,0
2016-11-11T01:42:40.449Z,0
2016-11-11T01:43:41.263Z,0
2016-11-11T01:44:40.537Z,0
2016-11-11T01:45:40.624Z,0
2016-11-11T01:46:40.612Z,0
2016-11-11T01:47:41.425Z,0
2016-11-11T01:48:40.866Z,0
2016-11-11T01:49:40.820Z,0
2016-11-11T01:50:40.861Z,0
2016-11-11T01:51:41.431Z,0
2016-11-11T01:52:40.989Z,0
2016-11-11T01:53:41.193Z,0
2016-11-11T01:54:41.622Z,0
2016-11-11T01:55:41.619Z,0
2016-11-11T01:56:41.163Z,0
2016-11-11T01:57:41.721Z,0
2016-11-11T01:58:41.269Z,0
2016-11-11T01:59:41.473Z,0
2016-11-11T02:00:41.904Z,0
2016-11-11T02:01:41.408Z,0
2016-11-11T02:02:41.524Z,0
2016-11-11T02:03:41.578Z,0
2016-11-11T02:04:41.795Z,0
2016-11-11T02:05:41.595Z,0
2016-11-11T02:06:41.679Z,0
2016-11-11T02:07:41.706Z,0
2016-11-11T02:08:41.775Z,0
2016-11-11T02:09:42.018Z,0
2016-11-11T02:10:41.904Z,0
2016-11-11T02:11:42.437Z,0
2016-11-11T02:12:42.039Z,0
2016-11-11T02:13:42.025Z,0
2016-11-11T02:14:42.789Z,0
2016-11-11T02:15:42.112Z,0
2016-11-11T02:16:42.236Z,0
2016-11-11T02:17:42.296Z,0
2016-11-11T02:18:42.768Z,0
2016-11-11T02:19:42.523Z,0
2016-11-11T02:20:42.396Z,0
2016-11-11T02:21:42.486Z,0
2016-11-11T02:22:42.509Z,0
2016-11-11T02:23:42.578Z,0
2016-11-11T02:24:42.613Z,0
2016-11-11T02:25:42.879Z,0
2016-11-11T02:26:42.689Z,0
2016-11-11T02:27:42.768Z,0
2016-11-11T02:28:42.813Z,0
2016-11-11T02:29:42.869Z,0
2016-11-11T02:30:43.129Z,0
2016-11-11T02:31:42.986Z,0
2016-11-11T02:32:43.015Z,0
2016-11-11T02:33:43.635Z,0
2016-11-11T02:34:43.168Z,0
2016-11-11T02:35:43.266Z,0
2016-11-11T02:36:43.748Z,0
2016-11-11T02:37:43.240Z,0
2016-11-11T02:38:43.335Z,0
2016-11-11T02:39:43.350Z,0
2016-11-11T02:40:43.675Z,0
2016-11-11T02:41:43.525Z,0
2016-11-11T02:42:43.545Z,0
2016-11-11T02:43:43.613Z,0
2016-11-11T02:44:43.685Z,0
2016-11-11T02:45:43.841Z,0
2016-11-11T02:46:43.751Z,0
2016-11-11T02:47:43.813Z,0
2016-11-11T02:48:43.849Z,0
2016-11-11T02:49:43.971Z,0
2016-11-11T02:50:44.104Z,0
2016-11-11T02:51:43.993Z,0
2016-11-11T02:52:44.044Z,0
2016-11-11T02:53:44.602Z,0
2016-11-11T02:54:44.181Z,0
2016-11-11T02:55:44.951Z,0
2016-11-11T02:56:44.230Z,0
2016-11-11T02:57:44.785Z,0
2016-11-11T02:58:44.391Z,0
2016-11-11T02:59:44.409Z,0
2016-11-11T03:00:44.512Z,0
2016-11-11T03:01:44.637Z,0
2016-11-11T03:02:44.532Z,0
2016-11-11T03:03:44.599Z,0
2016-11-11T03:04:44.702Z,0
2016-11-11T03:05:44.707Z,0
2016-11-11T03:06:44.906Z,0
2016-11-11T03:07:44.863Z,0
2016-11-11T03:08:44.861Z,0
2016-11-11T03:09:44.936Z,0
2016-11-11T03:10:44.967Z,0
2016-11-11T03:11:45.241Z,0
2016-11-11T03:12:45.094Z,0
2016-11-11T03:13:45.167Z,0
2016-11-11T03:14:45.247Z,0
2016-11-11T03:15:45.215Z,0
2016-11-11T03:16:45.562Z,0
2016-11-11T03:17:45.358Z,0
2016-11-11T03:18:45.438Z,0
2016-11-11T03:19:45.460Z,0
2016-11-11T03:20:45.468Z,0
2016-11-11T03:21:45.731Z,0
2016-11-11T03:22:45.596Z,0
2016-11-11T03:23:45.660Z,0
2016-11-11T03:24:45.730Z,0
2016-11-11T03:25:45.771Z,0
2016-11-11T03:26:45.981Z,0
2016-11-11T03:27:45.898Z,0
2016-11-11T03:28:45.903Z,0
2016-11-11T03:29:45.913Z,0
2016-11-11T03:30:46.558Z,0
2016-11-11T03:31:46.252Z,0
2016-11-11T03:32:46.116Z,0
2016-11-11T03:33:46.177Z,0
2016-11-11T03:34:46.236Z,0
2016-11-11T03:35:46.337Z,0
2016-11-11T03:36:46.307Z,0
2016-11-11T03:37:46.591Z,0
2016-11-11T03:38:46.417Z,0
2016-11-11T03:39:46.486Z,0
2016-11-11T03:40:46.570Z,0
2016-11-11T03:41:46.558Z,0
2016-11-11T03:42:46.810Z,0
2016-11-11T03:43:46.686Z,0
2016-11-11T03:44:46.732Z,0
2016-11-11T03:45:46.830Z,0
2016-11-11T03:46:46.862Z,0
2016-11-11T03:47:46.993Z,0
2016-11-11T03:48:46.931Z,0
2016-11-11T03:49:48.090Z,0
2016-11-11T03:50:47.079Z,0
2016-11-11T03:51:47.119Z,0
2016-11-11T03:52:47.345Z,0
2016-11-11T03:53:47.168Z,0
2016-11-11T03:54:47.227Z,0
2016-11-11T03:55:47.269Z,0
2016-11-11T03:56:47.904Z,0
2016-11-11T03:57:47.509Z,0
2016-11-11T03:58:48.186Z,0
2016-11-11T03:59:47.521Z,0
2016-11-11T04:00:47.558Z,0
2016-11-11T04:01:47.612Z,0
2016-11-11T04:02:48.343Z,0
2016-11-11T04:03:47.814Z,0
2016-11-11T04:04:47.787Z,0
2016-11-11T04:05:47.837Z,0
2016-11-11T04:06:47.874Z,0
2016-11-11T04:07:47.907Z,0
2016-11-11T04:08:48.609Z,0
2016-11-11T04:09:48.042Z,0
2016-11-11T04:10:48.093Z,0
2016-11-11T04:11:48.153Z,0
2016-11-11T04:12:48.691Z,0
2016-11-11T04:13:48.404Z,0
2016-11-11T04:14:48.296Z,0
2016-11-11T04:15:48.305Z,0
2016-11-11T04:16:48.380Z,0
2016-11-11T04:17:48.442Z,0
2016-11-11T04:18:48.640Z,0
2016-11-11T04:19:48.540Z,0
2016-11-11T04:20:48.600Z,0
2016-11-11T04:21:48.638Z,0
2016-11-11T04:22:48.698Z,0
2016-11-11T04:23:48.972Z,0
2016-11-11T04:24:48.782Z,0
2016-11-11T04:25:48.822Z,0
2016-11-11T04:26:48.902Z,0
2016-11-11T04:27:48.906Z,0
2016-11-11T04:28:49.677Z,0
2016-11-11T04:29:49.042Z,0
2016-11-11T04:30:49.099Z,0
2016-11-11T04:31:49.681Z,0
2016-11-11T04:32:49.184Z,0
2016-11-11T04:33:49.503Z,0
2016-11-11T04:34:49.311Z,0
2016-11-11T04:35:49.390Z,0
2016-11-11T04:36:49.387Z,0
2016-11-11T04:37:49.461Z,0
2016-11-11T04:38:49.659Z,0
2016-11-11T04:39:49.585Z,0
2016-11-11T04:40:49.591Z,0
2016-11-11T04:41:49.651Z,0
2016-11-11T04:42:49.719Z,0
2016-11-11T04:43:49.748Z,0
2016-11-11T04:44:49.949Z,0
2016-11-11T04:45:49.911Z,0
2016-11-11T04:46:50.473Z,0
2016-11-11T04:47:50.002Z,0
2016-11-11T04:48:50.012Z,0
2016-11-11T04:49:50.145Z,0
2016-11-11T04:50:50.628Z,0
2016-11-11T04:51:50.751Z,0
2016-11-11T04:52:50.186Z,0
2016-11-11T04:53:50.271Z,0
2016-11-11T04:54:50.562Z,0
2016-11-11T04:55:50.416Z,0
2016-11-11T04:56:50.457Z,0
2016-11-11T04:57:50.485Z,0
2016-11-11T04:58:50.570Z,0
2016-11-11T04:59:51.221Z,0
2016-11-11T05:00:50.633Z,0
2016-11-11T05:01:50.680Z,0
2016-11-11T05:02:50.736Z,0
2016-11-11T05:03:50.791Z,0
2016-11-11T05:04:51.060Z,0
2016-11-11T05:05:50.880Z,0
2016-11-11T05:06:50.911Z,0
2016-11-11T05:07:50.965Z,0
2016-11-11T05:08:51.079Z,0
2016-11-11T05:09:51.236Z,0
2016-11-11T05:10:52.249Z,0
2016-11-11T05:11:51.756Z,0
2016-11-11T05:12:51.793Z,0
2016-11-11T05:13:51.349Z,0
2016-11-11T05:14:51.461Z,0
2016-11-11T05:15:51.413Z,0
2016-11-11T05:16:51.459Z,0
2016-11-11T05:17:51.537Z,0
2016-11-11T05:18:51.614Z,0
2016-11-11T05:19:51.610Z,0
2016-11-11T05:20:51.769Z,0
2016-11-11T05:21:51.830Z,0
2016-11-11T05:22:51.778Z,0
2016-11-11T05:23:51.787Z,0
2016-11-11T05:24:51.937Z,0
2016-11-11T05:25:52.046Z,0
2016-11-11T05:26:51.990Z,0
2016-11-11T05:27:52.006Z,0
2016-11-11T05:28:52.101Z,0
2016-11-11T05:29:52.682Z,0
2016-11-11T05:30:52.859Z,0
2016-11-11T05:31:52.237Z,0
2016-11-11T05:32:52.271Z,0
2016-11-11T05:33:52.873Z,0
2016-11-11T05:34:52.397Z,0
2016-11-11T05:35:52.682Z,0
2016-11-11T05:36:52.504Z,0
2016-11-11T05:37:52.514Z,0
2016-11-11T05:38:52.640Z,0
2016-11-11T05:39:53.691Z,0
2016-11-11T05:40:52.893Z,0
2016-11-11T05:41:52.764Z,0
2016-11-11T05:42:52.820Z,0
2016-11-11T05:43:53.433Z,0
2016-11-11T05:44:52.955Z,0
2016-11-11T05:45:53.168Z,0
2016-11-11T05:46:53.277Z,0
2016-11-11T05:47:53.067Z,0
2016-11-11T05:48:53.087Z,0
2016-11-11T05:49:53.221Z,0
2016-11-11T05:50:53.179Z,0
2016-11-11T05:51:53.479Z,0
2016-11-11T05:52:53.347Z,0
2016-11-11T05:53:53.394Z,0
2016-11-11T05:54:53.998Z,0
2016-11-11T05:55:53.454Z,0
2016-11-11T05:56:53.596Z,0
2016-11-11T05:57:53.585Z,0
2016-11-11T05:58:54.185Z,0
2016-11-11T05:59:53.703Z,0
2016-11-11T06:00:53.732Z,0
2016-11-11T06:01:53.924Z,0
2016-11-11T06:02:53.832Z,0
2016-11-11T06:03:53.913Z,0
2016-11-11T06:04:53.909Z,0
2016-11-11T06:05:54.003Z,0
2016-11-11T06:06:54.132Z,0
2016-11-11T06:07:54.657Z,0
2016-11-11T06:08:54.133Z,0
2016-11-11T06:09:54.181Z,0
2016-11-11T06:10:54.254Z,0
2016-11-11T06:11:54.417Z,0
2016-11-11T06:12:54.324Z,0
2016-11-11T06:13:54.398Z,0
2016-11-11T06:14:54.436Z,0
2016-11-11T06:15:54.488Z,0
2016-11-11T06:16:54.633Z,0
2016-11-11T06:17:54.648Z,0
2016-11-11T06:18:54.645Z,0
2016-11-11T06:19:54.697Z,0
2016-11-11T06:20:54.748Z,0
2016-11-11T06:21:54.766Z,0
2016-11-11T06:22:55.064Z,0
2016-11-11T06:23:55.439Z,0
2016-11-11T06:24:54.959Z,0
2016-11-11T06:25:55.011Z,0
2016-11-11T06:26:55.058Z,0
2016-11-11T06:27:55.281Z,0
2016-11-11T06:28:55.160Z,0
2016-11-11T06:29:55.256Z,0
2016-11-11T06:30:55.281Z,0
2016-11-11T06:31:55.304Z,0
2016-11-11T06:32:55.457Z,0
2016-11-11T06:33:55.409Z,0
2016-11-11T06:34:56.001Z,0
2016-11-11T06:35:55.527Z,0
2016-11-11T06:36:55.563Z,0
2016-11-11T06:37:55.787Z,0
2016-11-11T06:38:55.634Z,0
2016-11-11T06:39:55.676Z,0
2016-11-11T06:40:55.752Z,0
2016-11-11T06:41:55.859Z,0
2016-11-11T06:42:55.965Z,0
2016-11-11T06:43:55.954Z,0
2016-11-11T06:44:56.030Z,0
2016-11-11T06:45:56.036Z,0
2016-11-11T06:46:56.134Z,0
2016-11-11T06:47:56.359Z,0
2016-11-11T06:48:56.191Z,0
2016-11-11T06:49:56.236Z,0
2016-11-11T06:50:56.294Z,0
2016-11-11T06:51:56.875Z,0
2016-11-11T06:52:56.383Z,0
2016-11-11T06:53:56.537Z,0
2016-11-11T06:54:56.478Z,0
2016-11-11T06:55:56.556Z,0
2016-11-11T06:56:56.631Z,0
2016-11-11T06:57:56.689Z,0
2016-11-11T06:58:56.810Z,0
2016-11-11T06:59:56.736Z,0
2016-11-11T07:00:57.882Z,0
2016-11-11T07:01:57.405Z,0
2016-11-11T07:02:57.452Z,0
2016-11-11T07:03:57.094Z,0
2016-11-11T07:04:56.996Z,0
2016-11-11T07:05:57.118Z,0
2016-11-11T07:06:57.122Z,0
2016-11-11T07:07:57.220Z,0
2016-11-11T07:08:57.276Z,0
2016-11-11T07:09:57.273Z,0
2016-11-11T07:10:57.309Z,0
2016-11-11T07:11:57.337Z,0
2016-11-11T07:12:57.943Z,0
2016-11-11T07:13:57.578Z,0
2016-11-11T07:14:57.542Z,0
2016-11-11T07:15:57.576Z,0
2016-11-11T07:16:57.583Z,0
2016-11-11T07:17:57.666Z,0
2016-11-11T07:18:57.839Z,0
2016-11-11T07:19:57.775Z,0
2016-11-11T07:20:57.805Z,0
2016-11-11T07:21:57.882Z,0
2016-11-11T07:22:57.921Z,0
2016-11-11T07:23:58.010Z,0
2016-11-11T07:24:58.126Z,0
2016-11-11T07:25:58.585Z,0
2016-11-11T07:26:58.131Z,0
2016-11-11T07:27:58.175Z,0
2016-11-11T07:28:58.199Z,0
2016-11-11T07:29:58.460Z,0
2016-11-11T07:30:58.320Z,0
2016-11-11T07:31:58.471Z,0
2016-11-11T07:32:58.419Z,0
2016-11-11T07:33:59.004Z,0
2016-11-11T07:34:58.634Z,0
2016-11-11T07:35:58.575Z,0
2016-11-11T07:36:58.637Z,0
2016-11-11T07:37:58.748Z,0
2016-11-11T07:38:58.795Z,0
2016-11-11T07:39:59.040Z,0
2016-11-11T07:40:58.844Z,0
2016-11-11T07:41:58.944Z,0
2016-11-11T07:42:58.907Z,0
2016-11-11T07:43:59.479Z,0
2016-11-11T07:44:59.161Z,0
2016-11-11T07:45:59.094Z,0
2016-11-11T07:46:59.189Z,0
2016-11-11T07:47:59.225Z,0
2016-11-11T07:48:59.256Z,0
2016-11-11T07:49:59.295Z,0
2016-11-11T07:50:59.574Z,0
2016-11-11T07:51:59.399Z,0
2016-11-11T07:52:59.455Z,0
2016-11-11T07:53:59.459Z,0
2016-11-11T07:54:59.551Z,0
2016-11-11T07:55:59.722Z,0
2016-11-11T07:56:59.644Z,0
2016-11-11T07:57:59.727Z,0
2016-11-11T07:58:59.781Z,0
2016-11-11T07:59:59.852Z,0
2016-11-11T08:01:00.094Z,0
2016-11-11T08:01:59.938Z,0
2016-11-11T08:02:59.983Z,0
2016-11-11T08:04:00.532Z,0
2016-11-11T08:05:00.071Z,0
2016-11-11T08:06:00.247Z,0
2016-11-11T08:07:00.232Z,0
2016-11-11T08:08:00.189Z,0
2016-11-11T08:09:00.260Z,0
2016-11-11T08:10:00.334Z,0
2016-11-11T08:11:01.428Z,0
2016-11-11T08:12:00.487Z,0
2016-11-11T08:13:00.485Z,0
2016-11-11T08:14:00.560Z,5
2016-11-11T08:15:00.586Z,5
2016-11-11T08:16:00.749Z,5
2016-11-11T08:17:00.723Z,5
2016-11-11T08:18:00.727Z,5
2016-11-11T08:19:01.310Z,5
2016-11-11T08:20:00.837Z,10
2016-11-11T08:21:01.069Z,10
2016-11-11T08:22:00.941Z,10
2016-11-11T08:23:01.007Z,10
2016-11-11T08:24:01.027Z,10
2016-11-11T08:25:01.078Z,10
2016-11-11T08:26:01.150Z,15
2016-11-11T08:27:01.363Z,15
2016-11-11T08:28:01.223Z,15
2016-11-11T08:29:01.371Z,15
2016-11-11T08:30:01.369Z,15
2016-11-11T08:31:01.367Z,20
2016-11-11T08:32:02.078Z,20
2016-11-11T08:33:01.515Z,20
2016-11-11T08:34:01.552Z,20
2016-11-11T08:35:01.646Z,20
2016-11-11T08:36:02.196Z,25
2016-11-11T08:37:01.777Z,25
2016-11-11T08:38:01.772Z,25
2016-11-11T08:39:02.317Z,25
2016-11-11T08:40:02.913Z,25
2016-11-11T08:41:02.382Z,25
2016-11-11T08:42:02.681Z,25
2016-11-11T08:43:02.022Z,30
2016-11-11T08:44:02.092Z,30
2016-11-11T08:45:02.132Z,30
2016-11-11T08:46:02.159Z,25
2016-11-11T08:47:02.336Z,25
2016-11-11T08:48:02.253Z,20
2016-11-11T08:49:02.890Z,20
2016-11-11T08:50:02.355Z,20
2016-11-11T08:51:02.427Z,20
2016-11-11T08:52:02.600Z,20
2016-11-11T08:53:02.521Z,20
2016-11-11T08:54:02.524Z,15
2016-11-11T08:55:02.590Z,15
2016-11-11T08:56:02.654Z,20
2016-11-11T08:57:02.758Z,20
2016-11-11T08:58:02.978Z,20
2016-11-11T08:59:02.829Z,20
2016-11-11T09:00:03.383Z,20
2016-11-11T09:01:02.962Z,25
2016-11-11T09:02:02.961Z,25
2016-11-11T09:03:03.810Z,25
2016-11-11T09:04:04.165Z,25
2016-11-11T09:05:03.724Z,30
2016-11-11T09:06:03.198Z,30
2016-11-11T09:07:03.232Z,30
2016-11-11T09:08:04.391Z,35
2016-11-11T09:09:03.897Z,40
2016-11-11T09:10:03.391Z,45
2016-11-11T09:11:03.875Z,55
2016-11-11T09:12:03.511Z,85
2016-11-11T09:13:03.772Z,65
2016-11-11T09:14:04.178Z,75
2016-11-11T09:15:04.751Z,90
2016-11-11T09:16:04.256Z,200
2016-11-11T09:17:03.780Z,380
2016-11-11T09:18:03.857Z,200
2016-11-11T09:19:03.897Z,290
2016-11-11T09:20:03.912Z,255
2016-11-11T09:21:03.946Z,225
2016-11-11T09:22:04.046Z,270
2016-11-11T09:23:04.192Z,765
2016-11-11T09:24:04.096Z,145
2016-11-11T09:25:04.716Z,250
2016-11-11T09:26:04.790Z,495
2016-11-11T09:27:04.262Z,820
2016-11-11T09:28:04.374Z,185
2016-11-11T09:29:04.497Z,220
2016-11-11T09:30:04.435Z,260
2016-11-11T09:31:05.041Z,775
2016-11-11T09:32:05.073Z,350
2016-11-11T09:33:04.583Z,885
2016-11-11T09:34:04.820Z,1100
2016-11-11T09:35:05.237Z,1145
2016-11-11T09:36:04.775Z,1155
2016-11-11T09:37:04.815Z,990
2016-11-11T09:38:04.857Z,1165
2016-11-11T09:39:05.556Z,1040
2016-11-11T09:40:05.547Z,590
2016-11-11T09:41:05.072Z,245
2016-11-11T09:42:05.727Z,175
2016-11-11T09:43:05.178Z,100
2016-11-11T09:44:05.862Z,80
2016-11-11T09:45:05.831Z,75
2016-11-11T09:46:05.284Z,80
2016-11-11T09:47:05.364Z,80
2016-11-11T09:48:06.484Z,90
2016-11-11T09:49:06.213Z,105
2016-11-11T09:50:05.553Z,205
2016-11-11T09:51:05.610Z,240
2016-11-11T09:52:05.661Z,165
2016-11-11T09:53:06.247Z,160
2016-11-11T09:54:05.775Z,450
2016-11-11T09:55:06.552Z,405
2016-11-11T09:56:05.874Z,950
2016-11-11T09:57:06.953Z,1200
2016-11-11T09:58:06.603Z,1415
2016-11-11T09:59:06.627Z,1460
2016-11-11T10:00:06.199Z,1410
2016-11-11T10:01:07.220Z,1530
2016-11-11T10:02:06.246Z,1145
2016-11-11T10:03:06.289Z,500
2016-11-11T10:04:06.924Z,360
2016-11-11T10:05:06.679Z,360
2016-11-11T10:06:06.453Z,355
2016-11-11T10:07:06.467Z,350
2016-11-11T10:08:06.595Z,355
2016-11-11T10:09:07.140Z,350
2016-11-11T10:10:06.811Z,345
2016-11-11T10:11:06.756Z,345
2016-11-11T10:12:06.795Z,340
2016-11-11T10:13:06.923Z,330
2016-11-11T10:14:06.880Z,335
2016-11-11T10:15:07.015Z,340
2016-11-11T10:16:07.542Z,330
2016-11-11T10:17:07.273Z,330
2016-11-11T10:18:07.172Z,330
2016-11-11T10:19:07.224Z,320
2016-11-11T10:20:07.342Z,315
2016-11-11T10:21:07.821Z,290
2016-11-11T10:22:08.015Z,265
2016-11-11T10:23:07.477Z,255
2016-11-11T10:24:07.468Z,250
2016-11-11T10:25:07.612Z,245
2016-11-11T10:26:08.169Z,240
2016-11-11T10:27:08.196Z,235
2016-11-11T10:28:08.211Z,230
2016-11-11T10:29:07.725Z,230
2016-11-11T10:30:09.030Z,225
2016-11-11T10:31:08.410Z,225
2016-11-11T10:32:08.958Z,220
2016-11-11T10:33:08.021Z,220
2016-11-11T10:34:08.067Z,220
2016-11-11T10:35:08.073Z,215
2016-11-11T10:36:08.322Z,215
2016-11-11T10:37:09.221Z,215
2016-11-11T10:38:08.286Z,215
2016-11-11T10:39:08.880Z,215
2016-11-11T10:40:08.360Z,210
2016-11-11T10:41:08.604Z,210
2016-11-11T10:42:08.490Z,215
2016-11-11T10:43:08.524Z,210
2016-11-11T10:44:09.564Z,210
2016-11-11T10:45:08.655Z,205
2016-11-11T10:46:08.835Z,205
2016-11-11T10:47:08.806Z,205
2016-11-11T10:48:08.828Z,205
2016-11-11T10:49:09.325Z,200
2016-11-11T10:50:09.155Z,200
2016-11-11T10:51:09.358Z,200
2016-11-11T10:52:09.127Z,200
2016-11-11T10:53:09.112Z,200
2016-11-11T10:54:09.174Z,195
2016-11-11T10:55:09.219Z,195
2016-11-11T10:56:14.228Z,195
2016-11-11T10:57:09.834Z,195
2016-11-11T10:58:09.339Z,195
2016-11-11T10:59:09.386Z,195
2016-11-11T11:00:10.447Z,195
2016-11-11T11:01:09.640Z,190
2016-11-11T11:02:09.589Z,200
2016-11-11T11:03:09.664Z,195
2016-11-11T11:04:10.207Z,195
2016-11-11T11:05:10.246Z,195
2016-11-11T11:06:09.914Z,195
2016-11-11T11:07:09.867Z,200
2016-11-11T11:08:09.868Z,195
2016-11-11T11:09:09.944Z,195
2016-11-11T11:10:10.043Z,195
2016-11-11T11:11:10.618Z,195
2016-11-11T11:12:10.320Z,195
2016-11-11T11:13:10.231Z,195
2016-11-11T11:14:11.380Z,195
2016-11-11T11:15:10.230Z,190
2016-11-11T11:16:10.521Z,190
2016-11-11T11:17:10.597Z,190
2016-11-11T11:18:11.492Z,190
2016-11-11T11:19:11.056Z,195
2016-11-11T11:20:10.566Z,185
2016-11-11T11:21:10.587Z,185
2016-11-11T11:22:11.431Z,185
2016-11-11T11:23:10.738Z,185
2016-11-11T11:24:10.723Z,185
2016-11-11T11:25:10.855Z,185
2016-11-11T11:26:10.874Z,185
2016-11-11T11:27:10.985Z,190
2016-11-11T11:28:11.008Z,185
2016-11-11T11:29:11.035Z,185
2016-11-11T11:30:11.142Z,180
2016-11-11T11:31:11.193Z,180
2016-11-11T11:32:12.011Z,180
2016-11-11T11:33:11.787Z,180
2016-11-11T11:34:11.301Z,180
2016-11-11T11:35:11.898Z,180
2016-11-11T11:36:11.436Z,180
2016-11-11T11:37:11.696Z,180
2016-11-11T11:38:11.590Z,180
2016-11-11T11:39:11.608Z,180
2016-11-11T11:40:11.641Z,180
2016-11-11T11:41:11.658Z,180
2016-11-11T11:42:11.795Z,180
2016-11-11T11:43:11.970Z,180
2016-11-11T11:44:12.956Z,180
2016-11-11T11:45:11.926Z,175
2016-11-11T11:46:11.970Z,175
2016-11-11T11:47:13.035Z,175
2016-11-11T11:48:13.193Z,175
2016-11-11T11:49:12.651Z,175
2016-11-11T11:50:12.729Z,175
2016-11-11T11:51:12.278Z,175
2016-11-11T11:52:12.270Z,175
2016-11-11T11:53:12.415Z,170
2016-11-11T11:54:12.392Z,180
2016-11-11T11:55:13.000Z,175
2016-11-11T11:56:14.081Z,170
2016-11-11T11:57:13.130Z,170
2016-11-11T11:58:13.324Z,170
2016-11-11T11:59:13.228Z,170
2016-11-11T12:00:13.259Z,170
2016-11-11T12:01:12.817Z,170
2016-11-11T12:02:12.853Z,170
2016-11-11T12:03:13.123Z,170
2016-11-11T12:04:13.488Z,170
2016-11-11T12:05:12.987Z,170
2016-11-11T12:06:13.032Z,170
2016-11-11T12:07:13.125Z,170
2016-11-11T12:08:13.701Z,170
2016-11-11T12:09:13.439Z,170
2016-11-11T12:10:13.296Z,170
2016-11-11T12:11:13.357Z,165
2016-11-11T12:12:13.428Z,165
2016-11-11T12:13:13.430Z,165
2016-11-11T12:14:13.605Z,165
2016-11-11T12:15:14.128Z,165
2016-11-11T12:16:13.613Z,165
2016-11-11T12:17:13.688Z,165
2016-11-11T12:18:14.299Z,165
2016-11-11T12:19:14.021Z,165
2016-11-11T12:20:14.897Z,165
2016-11-11T12:21:13.874Z,165
2016-11-11T12:22:13.946Z,165
2016-11-11T12:23:14.008Z,170
2016-11-11T12:24:14.133Z,160
2016-11-11T12:25:14.622Z,165
2016-11-11T12:26:14.189Z,165
2016-11-11T12:27:14.290Z,165
2016-11-11T12:28:14.832Z,165
2016-11-11T12:29:15.462Z,165
2016-11-11T12:30:15.478Z,165
2016-11-11T12:31:14.471Z,165
2016-11-11T12:32:15.118Z,165
2016-11-11T12:33:14.592Z,165
2016-11-11T12:34:15.288Z,165
2016-11-11T12:35:15.287Z,160
2016-11-11T12:36:15.313Z,160
2016-11-11T12:37:15.905Z,160
2016-11-11T12:38:15.942Z,160
2016-11-11T12:39:15.823Z,160
2016-11-11T12:40:15.492Z,160
2016-11-11T12:41:15.552Z,160
2016-11-11T12:42:15.077Z,160
2016-11-11T12:43:15.140Z,160
2016-11-11T12:44:15.216Z,160
2016-11-11T12:45:15.343Z,160
2016-11-11T12:46:15.842Z,160
2016-11-11T12:47:15.358Z,160
2016-11-11T12:48:15.376Z,160
2016-11-11T12:49:15.496Z,160
2016-11-11T12:50:16.158Z,155
2016-11-11T12:51:15.577Z,155
2016-11-11T12:52:15.603Z,155
2016-11-11T12:53:15.880Z,155
2016-11-11T12:54:15.692Z,155
2016-11-11T12:55:15.921Z,155
2016-11-11T12:56:15.884Z,155
2016-11-11T12:57:15.929Z,155
2016-11-11T12:58:15.949Z,155
2016-11-11T12:59:16.041Z,155
2016-11-11T13:00:16.717Z,145
2016-11-11T13:01:16.135Z,155
2016-11-11T13:02:16.161Z,155
2016-11-11T13:03:16.768Z,155
2016-11-11T13:04:16.294Z,155
2016-11-11T13:05:16.415Z,155
2016-11-11T13:06:16.459Z,160
2016-11-11T13:07:16.516Z,160
2016-11-11T13:08:16.775Z,160
2016-11-11T13:09:16.576Z,160
2016-11-11T13:10:16.844Z,160
2016-11-11T13:11:17.268Z,160
2016-11-11T13:12:16.727Z,160
2016-11-11T13:13:16.818Z,160
2016-11-11T13:14:16.851Z,165
2016-11-11T13:15:17.061Z,165
2016-11-11T13:16:17.522Z,165
2016-11-11T13:17:18.155Z,165
2016-11-11T13:18:17.290Z,145
2016-11-11T13:19:17.198Z,165
2016-11-11T13:20:17.936Z,140
2016-11-11T13:21:18.205Z,155
2016-11-11T13:22:18.418Z,170
2016-11-11T13:23:17.906Z,160
2016-11-11T13:24:17.470Z,140
2016-11-11T13:25:18.682Z,160
2016-11-11T13:26:17.574Z,130
2016-11-11T13:27:18.344Z,130
2016-11-11T13:28:18.221Z,155
2016-11-11T13:29:17.830Z,155
2016-11-11T13:30:18.854Z,165
2016-11-11T13:31:18.522Z,165
2016-11-11T13:32:17.894Z,165
2016-11-11T13:33:18.460Z,155
2016-11-11T13:34:19.304Z,155
2016-11-11T13:35:18.604Z,160
2016-11-11T13:36:18.875Z,130
2016-11-11T13:37:18.163Z,125
2016-11-11T13:38:19.389Z,120
2016-11-11T13:39:18.327Z,120
2016-11-11T13:40:18.410Z,120
2016-11-11T13:41:18.600Z,130
2016-11-11T13:42:19.048Z,165
2016-11-11T13:43:18.535Z,170
2016-11-11T13:44:18.570Z,135
2016-11-11T13:45:18.609Z,150
2016-11-11T13:46:19.363Z,145
2016-11-11T13:47:19.271Z,140
2016-11-11T13:48:19.334Z,140
2016-11-11T13:49:19.411Z,125
2016-11-11T13:50:18.935Z,130
2016-11-11T13:51:19.115Z,170
2016-11-11T13:52:20.196Z,170
2016-11-11T13:53:19.098Z,145
2016-11-11T13:54:19.264Z,125
2016-11-11T13:55:19.230Z,130
2016-11-11T13:56:19.480Z,165
2016-11-11T13:57:20.379Z,135
2016-11-11T13:58:20.447Z,135
2016-11-11T13:59:19.952Z,145
2016-11-11T14:00:20.025Z,135
2016-11-11T14:01:19.558Z,135
2016-11-11T14:02:20.323Z,150
2016-11-11T14:03:19.655Z,140
2016-11-11T14:04:19.721Z,155
2016-11-11T14:05:19.759Z,145
2016-11-11T14:06:20.380Z,160
2016-11-11T14:07:20.093Z,160
2016-11-11T14:08:20.502Z,160
2016-11-11T14:09:20.746Z,160
2016-11-11T14:10:20.609Z,160
2016-11-11T14:11:20.120Z,145
2016-11-11T14:12:20.260Z,130
2016-11-11T14:13:20.245Z,160
2016-11-11T14:14:20.268Z,160
2016-11-11T14:15:21.951Z,135
2016-11-11T14:16:20.456Z,125
2016-11-11T14:17:20.536Z,125
2016-11-11T14:18:21.040Z,130
2016-11-11T14:19:20.598Z,135
2016-11-11T14:20:20.609Z,130
2016-11-11T14:21:20.702Z,125
2016-11-11T14:22:20.962Z,125
2016-11-11T14:23:20.795Z,125